Beauharnois, Canada
Current Conditions -  °F | °C
As of 9:24 PM on Saturday 22 Nov 2014 (Local Time) from CYUL Reporting Station
Drizzle Drizzle  
Wind Chill: 27°   Ceiling: 800
Heat Index: 36°   Visibility: 12mi
Dew Point: 34°   Wind: 13mph
Humidity: 93%   Direction: 250°WSW
Pressure: 29.89"   Gusts: 18mph
Location:  45.32°N, 73.87°W
Report Text: CYUL 230224Z 25011G16KT 12SM -DZ OVC008 02/01 A2989 RMK ST8 SLP123
Loading
Personal Weather Stations






























Interactive Weather Map New forecast layout! Learn more

10-Day Weather Forecast

Advertisements
Track Severe Weather on mobile